createdAt,value
2023-03-16T01:29:43.931Z,84.66
2023-03-16T01:32:11.802Z,72.75
2023-03-16T01:34:38.780Z,72.04
2023-03-16T01:37:06.179Z,71.90
2023-03-16T01:39:49.977Z,72.37
2023-03-16T01:42:17.256Z,72.50
2023-03-16T01:44:55.756Z,72.35
2023-03-16T01:47:27.084Z,72.22
2023-03-16T01:49:55.533Z,71.95
2023-03-16T01:52:32.846Z,72.93
2023-03-16T01:55:02.748Z,72.73
2023-03-16T01:57:36.484Z,71.68
2023-03-16T02:00:10.048Z,71.62
2023-03-16T02:02:51.000Z,71.63
2023-03-16T02:05:43.885Z,71.50
2023-03-16T02:08:14.608Z,70.26
2023-03-16T02:10:41.891Z,70.27
2023-03-16T02:13:12.686Z,70.21
2023-03-16T02:15:41.437Z,70.37
2023-03-16T02:18:08.302Z,70.39
2023-03-16T02:20:49.536Z,70.46
2023-03-16T02:23:18.289Z,70.38
2023-03-16T02:26:12.207Z,70.21
2023-03-16T02:28:52.176Z,69.37
2023-03-16T02:31:22.146Z,69.96
2023-03-16T02:34:09.018Z,70.71
2023-03-16T02:36:36.528Z,70.60
2023-03-16T02:39:05.266Z,70.41
2023-03-16T02:41:38.865Z,70.70
2023-03-16T02:44:18.931Z,70.36
2023-03-16T02:46:46.384Z,71.03
2023-03-16T02:49:24.899Z,70.42
2023-03-16T02:51:52.503Z,70.80
2023-03-16T02:54:20.006Z,71.53
2023-03-16T02:56:47.359Z,70.66
2023-03-16T02:59:14.633Z,70.05
2023-03-16T03:01:41.980Z,71.07
2023-03-16T03:04:10.204Z,69.67
2023-03-16T03:06:37.330Z,70.41
2023-03-16T03:09:04.852Z,70.10
2023-03-16T03:11:31.975Z,70.42
2023-03-16T03:13:59.616Z,71.27
2023-03-16T03:16:27.760Z,71.03
2023-03-16T03:18:55.865Z,70.92
2023-03-16T03:21:23.711Z,71.53
2023-03-16T03:23:51.043Z,72.44
2023-03-16T03:26:17.894Z,72.40
2023-03-16T03:28:46.383Z,72.40
2023-03-16T03:31:17.546Z,72.09
2023-03-16T03:33:44.644Z,74.01
2023-03-16T03:36:12.419Z,73.77
2023-03-16T03:38:39.717Z,75.04
2023-03-16T03:41:07.459Z,74.90
2023-03-16T03:43:36.244Z,75.67
2023-03-16T03:46:03.485Z,75.47
2023-03-16T03:48:33.316Z,76.27
2023-03-16T03:51:00.597Z,76.12
2023-03-16T03:53:46.669Z,77.31
2023-03-16T03:56:48.942Z,78.22
2023-03-16T03:59:16.492Z,77.89
2023-03-16T04:02:06.362Z,80.17
2023-03-16T04:04:51.059Z,80.20
2023-03-16T04:07:17.923Z,80.21
2023-03-16T04:09:45.012Z,80.24
2023-03-16T04:12:20.755Z,81.50
2023-03-16T04:14:48.877Z,81.20
2023-03-16T04:17:16.849Z,83.12
2023-03-16T04:19:44.745Z,85.93
2023-03-16T04:22:13.765Z,83.25
2023-03-16T04:24:42.643Z,84.34
2023-03-16T04:27:11.545Z,84.20
2023-03-16T04:29:38.653Z,84.73
2023-03-16T04:32:06.570Z,84.62
2023-03-16T04:34:34.154Z,85.10
2023-03-16T04:37:03.144Z,85.75
2023-03-16T04:39:31.783Z,85.93
2023-03-16T04:41:59.172Z,85.51
2023-03-16T04:44:27.206Z,85.57
2023-03-16T04:46:54.113Z,85.30
2023-03-16T04:49:21.866Z,85.52
2023-03-16T04:51:49.746Z,88.49
2023-03-16T04:54:19.075Z,85.67
2023-03-16T04:56:46.528Z,85.89
2023-03-16T04:59:39.345Z,87.67
2023-03-16T05:02:14.445Z,85.98
2023-03-16T05:04:43.235Z,86.17
2023-03-16T05:07:14.781Z,86.15
2023-03-16T05:09:46.872Z,85.52
2023-03-16T05:12:13.885Z,86.06
2023-03-16T05:14:46.612Z,86.94
2023-03-16T05:17:21.756Z,85.83
2023-03-16T05:19:49.590Z,86.51
2023-03-16T05:22:20.234Z,85.50
2023-03-16T05:25:14.485Z,86.48
2023-03-16T05:27:48.162Z,85.20
2023-03-16T05:30:20.090Z,86.73
2023-03-16T05:32:47.904Z,86.78
2023-03-16T05:35:24.178Z,85.51
2023-03-16T05:37:52.351Z,85.53
2023-03-16T05:40:22.466Z,83.89
2023-03-16T05:42:56.762Z,84.31
2023-03-16T05:45:27.754Z,83.02
2023-03-16T05:48:08.789Z,82.88
2023-03-16T05:50:39.030Z,83.22
2023-03-16T05:53:06.207Z,82.87
2023-03-16T05:55:33.439Z,83.72
2023-03-16T05:58:02.563Z,85.64
2023-03-16T06:00:32.484Z,85.73
2023-03-16T06:03:07.889Z,86.17
2023-03-16T06:05:38.508Z,86.07
2023-03-16T06:08:05.749Z,85.88
2023-03-16T06:10:35.862Z,86.63
2023-03-16T06:13:03.419Z,86.37
2023-03-16T06:15:32.994Z,86.40
2023-03-16T06:18:08.303Z,87.69
2023-03-16T06:20:39.617Z,87.89
2023-03-16T06:23:08.202Z,87.43
2023-03-16T06:25:35.282Z,88.07
2023-03-16T06:28:04.161Z,87.94
2023-03-16T06:30:32.841Z,88.52
2023-03-16T06:33:01.674Z,88.26
2023-03-16T06:35:28.684Z,91.15
2023-03-16T06:38:16.747Z,90.14
2023-03-16T06:41:10.625Z,91.94
2023-03-16T06:43:39.549Z,89.84
2023-03-16T06:46:07.466Z,89.23
2023-03-16T06:48:38.358Z,89.54
2023-03-16T06:51:07.225Z,90.27
2023-03-16T06:53:34.813Z,90.27
2023-03-16T06:56:05.016Z,89.75
2023-03-16T06:58:35.057Z,89.98
2023-03-16T07:01:05.433Z,90.05
2023-03-16T07:03:33.321Z,90.88
2023-03-16T07:06:09.113Z,90.57
2023-03-16T07:08:37.690Z,89.64
2023-03-16T07:11:05.108Z,89.47
2023-03-16T07:13:32.137Z,90.80
2023-03-16T07:15:59.074Z,89.76
2023-03-16T07:18:29.754Z,88.85
2023-03-16T07:20:56.982Z,88.44
2023-03-16T07:23:26.264Z,88.55
2023-03-16T07:25:57.712Z,88.03
2023-03-16T07:28:27.485Z,87.62
2023-03-16T07:31:03.316Z,88.08
2023-03-16T07:33:36.149Z,88.10
2023-03-16T07:36:05.301Z,87.13
2023-03-16T07:38:32.908Z,87.55
2023-03-16T07:41:05.688Z,89.32
2023-03-16T07:43:34.214Z,88.00
2023-03-16T07:46:01.323Z,87.29
2023-03-16T07:48:29.210Z,86.11
2023-03-16T07:50:59.969Z,86.88
2023-03-16T07:53:33.224Z,85.83
2023-03-16T07:56:29.700Z,85.96
2023-03-16T07:59:05.184Z,86.21
2023-03-16T08:01:33.927Z,85.37
2023-03-16T08:04:01.116Z,86.40
2023-03-16T08:06:29.722Z,84.41
2023-03-16T08:08:57.018Z,83.37
2023-03-16T08:11:29.601Z,82.73
2023-03-16T08:13:58.930Z,82.10
2023-03-16T08:16:35.232Z,82.08
2023-03-16T08:19:04.807Z,82.42
2023-03-16T08:21:35.074Z,80.87
2023-03-16T08:24:05.978Z,80.94
2023-03-16T08:26:39.482Z,81.37
2023-03-16T08:29:06.983Z,81.66
2023-03-16T08:31:34.985Z,81.39
2023-03-16T08:34:12.632Z,80.29
2023-03-16T08:36:43.732Z,80.42
2023-03-16T08:39:13.084Z,80.08
2023-03-16T08:41:43.202Z,79.63
2023-03-16T08:44:19.645Z,79.05
2023-03-16T08:46:47.481Z,78.91
2023-03-16T08:49:14.895Z,78.02
2023-03-16T08:51:46.028Z,76.25
2023-03-16T08:54:13.593Z,76.91
2023-03-16T08:56:42.801Z,77.25
2023-03-16T08:59:19.867Z,77.27
2023-03-16T09:01:56.030Z,77.80
2023-03-16T09:04:24.619Z,77.09
2023-03-16T09:07:05.952Z,77.20
2023-03-16T09:09:35.145Z,76.39
2023-03-16T09:12:03.708Z,74.63
2023-03-16T09:14:31.158Z,75.93
2023-03-16T09:17:01.668Z,76.61
2023-03-16T09:19:47.887Z,76.66
2023-03-16T09:22:19.145Z,76.33
2023-03-16T09:24:49.341Z,77.44
2023-03-16T09:27:16.887Z,77.70
2023-03-16T09:29:48.994Z,77.06
2023-03-16T09:32:17.336Z,76.09
2023-03-16T09:34:45.168Z,76.04
2023-03-16T09:37:12.041Z,75.50
2023-03-16T09:39:39.197Z,76.05
2023-03-16T09:42:27.647Z,76.84
2023-03-16T09:45:04.934Z,76.66
2023-03-16T09:47:33.608Z,75.96
2023-03-16T09:50:06.344Z,75.93
2023-03-16T09:52:53.603Z,74.92
2023-03-16T09:55:28.417Z,74.64
2023-03-16T09:57:56.891Z,75.26
2023-03-16T10:00:33.548Z,75.66
2023-03-16T10:03:17.145Z,75.94
2023-03-16T10:05:45.030Z,75.37
2023-03-16T10:08:24.673Z,74.91
2023-03-16T10:10:55.049Z,75.05
2023-03-16T10:13:35.794Z,74.15
2023-03-16T10:16:12.277Z,74.42
2023-03-16T10:18:46.803Z,73.98
2023-03-16T10:21:16.431Z,73.47
2023-03-16T10:23:46.008Z,73.09
2023-03-16T10:26:18.309Z,72.35
2023-03-16T10:28:45.980Z,72.36
2023-03-16T10:31:13.418Z,72.84
2023-03-16T10:33:40.559Z,72.31
2023-03-16T10:36:25.485Z,72.29
2023-03-16T10:38:54.913Z,72.10
2023-03-16T10:41:32.995Z,71.89
2023-03-16T10:44:16.585Z,72.29
2023-03-16T10:47:05.173Z,72.16
2023-03-16T10:49:41.712Z,72.08
2023-03-16T10:52:13.479Z,70.87
2023-03-16T10:54:41.217Z,70.04
2023-03-16T10:57:33.476Z,70.20
2023-03-16T11:00:14.800Z,70.14
2023-03-16T11:02:42.149Z,69.89
2023-03-16T11:05:18.025Z,70.43
2023-03-16T11:07:59.951Z,70.85
2023-03-16T11:10:34.585Z,70.62
2023-03-16T11:13:14.433Z,70.15
2023-03-16T11:15:57.577Z,70.11
2023-03-16T11:18:29.756Z,69.47
2023-03-16T11:21:00.029Z,69.96
2023-03-16T11:23:38.355Z,69.33
2023-03-16T11:26:07.481Z,70.72
2023-03-16T11:28:38.149Z,70.24
2023-03-16T11:31:12.482Z,70.53
2023-03-16T11:33:40.268Z,70.88
2023-03-16T11:36:12.545Z,70.61
2023-03-16T11:38:53.091Z,70.62
2023-03-16T11:41:28.568Z,69.75
2023-03-16T11:43:57.167Z,69.37
2023-03-16T11:46:33.191Z,69.21
2023-03-16T11:49:34.966Z,69.16
2023-03-16T11:52:27.846Z,68.59
2023-03-16T11:55:29.039Z,68.89
2023-03-16T11:58:06.659Z,68.46
2023-03-16T12:00:55.675Z,68.69
2023-03-16T12:03:31.780Z,68.57
2023-03-16T12:06:13.556Z,67.33
2023-03-16T12:08:48.052Z,67.16
2023-03-16T12:11:24.666Z,67.78
2023-03-16T12:14:16.493Z,66.78
2023-03-16T12:16:49.500Z,66.38
2023-03-16T12:19:24.413Z,66.78
2023-03-16T12:21:59.505Z,66.55
2023-03-16T12:24:28.335Z,66.07
2023-03-16T12:26:57.295Z,65.93
2023-03-16T12:29:36.232Z,65.91
2023-03-16T12:32:20.370Z,65.44
2023-03-16T12:34:59.525Z,65.36
2023-03-16T12:37:35.945Z,66.34
2023-03-16T12:40:11.971Z,67.38
2023-03-16T12:43:35.129Z,67.40
2023-03-16T12:46:11.500Z,67.94
2023-03-16T12:48:46.868Z,67.27
2023-03-16T12:51:13.952Z,67.83
2023-03-16T12:53:52.757Z,67.19
2023-03-16T12:56:42.235Z,66.55
2023-03-16T12:59:19.157Z,66.85
2023-03-16T13:01:56.934Z,67.61
2023-03-16T13:04:34.586Z,67.87
2023-03-16T13:07:11.518Z,68.03
2023-03-16T13:09:46.102Z,67.96
2023-03-16T13:12:26.327Z,68.29
2023-03-16T13:14:54.717Z,69.41
2023-03-16T13:17:24.331Z,69.24
2023-03-16T13:20:30.366Z,69.30
2023-03-16T13:23:17.745Z,69.83
2023-03-16T13:25:57.643Z,70.25
2023-03-16T13:28:31.146Z,70.47
2023-03-16T13:30:58.675Z,70.04
2023-03-16T13:33:27.394Z,70.28
2023-03-16T13:35:55.661Z,70.63
2023-03-16T13:38:26.968Z,70.60
2023-03-16T13:41:02.783Z,71.61
2023-03-16T13:45:43.263Z,93.17
2023-03-16T13:48:13.790Z,79.48
2023-03-16T13:50:43.520Z,77.43
2023-03-16T13:53:17.763Z,77.19
2023-03-16T13:55:47.534Z,76.75
2023-03-16T13:58:29.084Z,77.68
2023-03-16T14:00:59.955Z,78.23
2023-03-16T14:03:48.541Z,77.29
2023-03-16T14:06:27.552Z,77.00
2023-03-16T14:08:58.858Z,76.89
2023-03-16T14:11:28.544Z,77.53
2023-03-16T14:13:59.023Z,76.54
2023-03-16T14:16:29.140Z,76.59
2023-03-16T14:19:04.631Z,77.92
2023-03-16T14:21:34.856Z,79.54
2023-03-16T14:24:07.869Z,78.82
2023-03-16T14:26:45.620Z,79.47
2023-03-16T14:29:27.714Z,80.05
2023-03-16T14:31:56.719Z,80.92
2023-03-16T14:34:30.467Z,80.64
2023-03-16T14:37:06.284Z,81.31
2023-03-16T14:39:42.086Z,80.60
2023-03-16T14:42:19.901Z,80.41
2023-03-16T14:44:51.213Z,80.98
2023-03-16T14:47:24.617Z,80.33
2023-03-16T14:50:06.815Z,81.19
2023-03-16T14:52:36.221Z,81.06
2023-03-16T14:55:15.838Z,81.57
2023-03-16T14:57:47.660Z,82.64
2023-03-16T15:00:22.049Z,81.10
2023-03-16T15:02:59.806Z,78.97
2023-03-16T15:05:32.118Z,79.43
2023-03-16T15:08:01.198Z,79.71
2023-03-16T15:10:34.621Z,79.10
2023-03-16T15:13:13.401Z,78.01
2023-03-16T15:15:42.783Z,77.94
2023-03-16T15:18:13.723Z,77.61
2023-03-16T15:20:43.894Z,76.72
2023-03-16T15:23:14.268Z,76.62
2023-03-16T15:25:45.044Z,76.26
2023-03-16T15:28:21.731Z,76.24
2023-03-16T15:30:56.877Z,77.12
2023-03-16T15:33:26.967Z,77.11
2023-03-16T15:35:56.534Z,76.80
2023-03-16T15:38:25.086Z,76.69
2023-03-16T15:40:54.468Z,77.46
2023-03-16T15:43:25.054Z,76.83
2023-03-16T15:45:54.389Z,76.55
2023-03-16T15:48:24.756Z,76.49
2023-03-16T15:50:54.462Z,75.06
2023-03-16T15:53:36.035Z,74.57
2023-03-16T15:56:12.505Z,74.27
2023-03-16T15:58:44.180Z,74.94
2023-03-16T16:01:23.538Z,75.56
2023-03-16T16:03:52.625Z,76.16
2023-03-16T16:06:21.872Z,75.76
2023-03-16T16:08:50.965Z,75.26
2023-03-16T16:11:25.226Z,75.56
2023-03-16T16:13:55.156Z,75.70
2023-03-16T16:16:30.186Z,75.95
2023-03-16T16:18:59.385Z,75.85
2023-03-16T16:21:33.944Z,76.33
2023-03-16T16:24:03.290Z,76.99
2023-03-16T16:26:49.957Z,76.37
2023-03-16T16:29:22.536Z,76.84
2023-03-16T16:31:54.304Z,77.04
2023-03-16T16:34:25.887Z,76.91
2023-03-16T16:36:55.501Z,77.23
2023-03-16T16:39:24.667Z,77.56
2023-03-16T16:41:57.196Z,76.21
2023-03-16T16:44:32.013Z,76.68
2023-03-16T16:47:23.747Z,77.02
2023-03-16T16:49:53.633Z,76.91
2023-03-16T16:52:25.622Z,76.01
2023-03-16T16:54:54.167Z,76.46
2023-03-16T16:57:22.931Z,76.39
2023-03-16T16:59:51.380Z,75.74
2023-03-16T17:02:43.751Z,76.80
2023-03-16T17:05:28.860Z,77.27
2023-03-16T17:08:03.617Z,76.91
2023-03-16T17:10:35.173Z,77.24
2023-03-16T17:13:04.056Z,76.11
2023-03-16T17:15:33.133Z,75.47
2023-03-16T17:18:11.063Z,74.75
2023-03-16T17:20:40.000Z,73.76
2023-03-16T17:23:29.376Z,72.85
2023-03-16T17:25:58.787Z,71.53
2023-03-16T17:28:28.458Z,71.45
2023-03-16T17:31:02.699Z,71.79
2023-03-16T17:33:32.415Z,71.74
2023-03-16T17:36:02.620Z,71.63
2023-03-16T17:38:33.100Z,71.12
2023-03-16T17:41:02.021Z,70.36
2023-03-16T17:43:32.009Z,69.98
2023-03-16T17:46:00.748Z,69.42
2023-03-16T17:48:30.000Z,69.17
2023-03-16T17:50:59.981Z,68.84
2023-03-16T17:53:28.841Z,69.48
2023-03-16T17:55:59.062Z,68.89
2023-03-16T17:58:29.778Z,68.32
2023-03-16T18:01:02.819Z,67.76
2023-03-16T18:03:31.540Z,67.63
2023-03-16T18:06:00.162Z,67.23
2023-03-16T18:08:36.307Z,66.48
2023-03-16T18:11:07.024Z,66.77
2023-03-16T18:13:37.085Z,66.04
2023-03-16T18:16:07.363Z,66.06
2023-03-16T18:18:39.988Z,65.85
2023-03-16T18:21:17.281Z,65.81
2023-03-16T18:23:46.625Z,65.80
2023-03-16T18:26:15.123Z,65.93
2023-03-16T18:28:44.140Z,65.87
2023-03-16T18:31:26.604Z,65.73
2023-03-16T18:33:57.424Z,65.69
2023-03-16T18:36:33.697Z,65.40
2023-03-16T18:39:17.276Z,65.59
2023-03-16T18:41:50.161Z,65.81
2023-03-16T18:44:26.049Z,65.81
2023-03-16T18:46:59.019Z,65.70
2023-03-16T18:49:32.018Z,65.81
2023-03-16T18:52:01.601Z,65.22
2023-03-16T18:54:32.080Z,65.26
2023-03-16T18:57:00.455Z,65.87
2023-03-16T18:59:30.406Z,65.26
2023-03-16T19:01:58.924Z,65.84
2023-03-16T19:04:31.037Z,65.55
2023-03-16T19:07:00.143Z,66.23
2023-03-16T19:09:31.995Z,66.24
2023-03-16T19:12:03.799Z,66.10
2023-03-16T19:14:33.184Z,66.42
2023-03-16T19:17:05.372Z,67.15
2023-03-16T19:19:33.805Z,66.40
2023-03-16T19:22:12.851Z,66.45
2023-03-16T19:24:48.411Z,66.61
2023-03-16T19:27:26.675Z,67.06
2023-03-16T19:29:58.226Z,67.55
2023-03-16T19:32:26.752Z,66.56
2023-03-16T19:34:58.683Z,66.51
2023-03-16T19:37:30.194Z,66.38
2023-03-16T19:39:59.253Z,67.03
2023-03-16T19:42:30.025Z,67.36
2023-03-16T19:44:58.301Z,67.51
2023-03-16T19:47:29.771Z,67.72
2023-03-16T19:49:59.045Z,68.47
2023-03-16T19:52:28.404Z,67.82
2023-03-16T19:54:57.942Z,67.93
2023-03-16T19:57:26.695Z,67.91
2023-03-16T19:59:57.645Z,68.15
2023-03-16T20:02:33.555Z,68.09
2023-03-16T20:05:02.179Z,68.65
2023-03-16T20:07:30.677Z,68.52
2023-03-16T20:09:59.069Z,68.99
2023-03-16T20:12:29.312Z,69.88
2023-03-16T20:15:00.991Z,69.64
2023-03-16T20:17:30.294Z,69.62
2023-03-16T20:20:01.436Z,69.49
2023-03-16T20:22:30.304Z,69.74
2023-03-16T20:24:58.993Z,69.67
2023-03-16T20:27:30.908Z,69.27
2023-03-16T20:29:59.415Z,69.37
2023-03-16T20:32:35.903Z,69.02
2023-03-16T20:35:20.958Z,68.89
2023-03-16T20:37:50.106Z,69.20
2023-03-16T20:40:19.752Z,68.71
2023-03-16T20:42:48.774Z,68.49
2023-03-16T20:45:28.546Z,68.88
2023-03-16T20:47:57.167Z,68.56
2023-03-16T20:50:28.132Z,67.85
2023-03-16T20:52:58.320Z,67.96
2023-03-16T20:55:29.407Z,68.15
2023-03-16T20:58:01.386Z,67.24
2023-03-16T21:00:35.952Z,67.53
2023-03-16T21:03:12.548Z,67.66
2023-03-16T21:05:41.058Z,68.11
2023-03-16T21:08:09.517Z,68.57
2023-03-16T21:10:45.678Z,67.89
2023-03-16T21:13:18.617Z,67.87
2023-03-16T21:15:50.001Z,68.37
2023-03-16T21:18:20.808Z,68.65
2023-03-16T21:20:50.137Z,68.45
2023-03-16T21:23:22.033Z,68.74
2023-03-16T21:25:55.923Z,68.20
2023-03-16T21:28:25.046Z,67.99
2023-03-16T21:31:01.308Z,68.11
2023-03-16T21:33:37.870Z,68.14
2023-03-16T21:36:12.250Z,68.02
2023-03-16T21:38:41.380Z,67.18
2023-03-16T21:41:09.798Z,67.45
2023-03-16T21:43:44.577Z,68.18
2023-03-16T21:46:21.578Z,67.88
2023-03-16T21:48:52.683Z,67.42
2023-03-16T21:51:22.471Z,67.18
2023-03-16T21:53:51.134Z,66.65
2023-03-16T21:56:25.661Z,66.79
2023-03-16T21:58:54.178Z,66.66
2023-03-16T22:01:25.812Z,66.40
2023-03-16T22:03:57.715Z,65.79
2023-03-16T22:06:28.137Z,65.70
2023-03-16T22:08:57.750Z,65.38
2023-03-16T22:11:29.895Z,65.61
2023-03-16T22:13:59.665Z,65.46
2023-03-16T22:16:30.254Z,65.81
2023-03-16T22:18:59.749Z,65.54
2023-03-16T22:21:38.317Z,65.99
2023-03-16T22:24:13.801Z,65.79
2023-03-16T22:26:42.764Z,65.61
2023-03-16T22:29:24.147Z,64.93
2023-03-16T22:31:58.090Z,64.60
2023-03-16T22:34:51.576Z,64.40
2023-03-16T22:37:21.549Z,63.90
2023-03-16T22:39:50.058Z,63.86
2023-03-16T22:42:38.304Z,63.82
2023-03-16T22:45:21.646Z,63.95
2023-03-16T22:47:50.358Z,63.77
2023-03-16T22:50:19.654Z,63.75
2023-03-16T22:52:49.186Z,63.60
2023-03-16T22:55:20.193Z,63.29
2023-03-16T22:57:50.651Z,62.58
2023-03-16T23:00:22.316Z,62.81
2023-03-16T23:02:50.930Z,62.87
2023-03-16T23:05:24.776Z,63.00
2023-03-16T23:07:55.215Z,63.29
2023-03-16T23:10:25.777Z,63.58
2023-03-16T23:12:59.562Z,63.53
2023-03-16T23:15:29.878Z,63.74
2023-03-16T23:17:58.448Z,63.61
2023-03-16T23:20:29.337Z,63.63
2023-03-16T23:22:58.180Z,63.80
2023-03-16T23:25:27.722Z,63.56
2023-03-16T23:27:56.913Z,63.48
2023-03-16T23:30:26.244Z,63.82
2023-03-16T23:32:55.778Z,63.44
2023-03-16T23:35:25.796Z,63.23
2023-03-16T23:38:01.577Z,63.29
2023-03-16T23:40:30.681Z,62.43
2023-03-16T23:42:59.827Z,62.82
2023-03-16T23:45:42.313Z,62.94
2023-03-16T23:48:19.122Z,62.91
2023-03-16T23:50:49.493Z,62.62
2023-03-16T23:53:19.174Z,62.31
2023-03-16T23:55:51.884Z,61.70
2023-03-16T23:58:21.134Z,61.21
